sensor_id;sensor_type;location;lat;lon;timestamp;P1;durP1;ratioP1;P2;durP2;ratioP2
3712;SDS011;1872;51.406;6.856;2023-04-25T00:00:52;11.70;;;6.43;;
3712;SDS011;1872;51.406;6.856;2023-04-25T00:03:18;11.00;;;5.90;;
3712;SDS011;1872;51.406;6.856;2023-04-25T00:05:44;14.27;;;5.30;;
3712;SDS011;1872;51.406;6.856;2023-04-25T00:08:10;14.07;;;6.10;;
3712;SDS011;1872;51.406;6.856;2023-04-25T00:10:36;6.23;;;4.80;;
3712;SDS011;1872;51.406;6.856;2023-04-25T00:13:01;8.20;;;4.83;;
3712;SDS011;1872;51.406;6.856;2023-04-25T00:15:27;8.20;;;5.63;;
3712;SDS011;1872;51.406;6.856;2023-04-25T00:17:55;11.63;;;5.27;;
3712;SDS011;1872;51.406;6.856;2023-04-25T00:20:21;14.50;;;6.37;;
3712;SDS011;1872;51.406;6.856;2023-04-25T00:22:48;12.03;;;5.73;;
3712;SDS011;1872;51.406;6.856;2023-04-25T00:25:14;8.83;;;4.90;;
3712;SDS011;1872;51.406;6.856;2023-04-25T00:27:40;7.90;;;6.20;;
3712;SDS011;1872;51.406;6.856;2023-04-25T00:30:07;12.20;;;5.90;;
3712;SDS011;1872;51.406;6.856;2023-04-25T00:32:33;8.77;;;5.17;;
3712;SDS011;1872;51.406;6.856;2023-04-25T00:34:58;11.50;;;5.60;;
3712;SDS011;1872;51.406;6.856;2023-04-25T00:37:24;7.83;;;5.47;;
3712;SDS011;1872;51.406;6.856;2023-04-25T00:39:50;8.83;;;4.97;;
3712;SDS011;1872;51.406;6.856;2023-04-25T00:42:16;8.10;;;5.90;;
3712;SDS011;1872;51.406;6.856;2023-04-25T00:44:42;8.50;;;5.50;;
3712;SDS011;1872;51.406;6.856;2023-04-25T00:47:10;8.53;;;5.43;;
3712;SDS011;1872;51.406;6.856;2023-04-25T00:49:36;8.10;;;5.67;;
3712;SDS011;1872;51.406;6.856;2023-04-25T00:52:01;13.30;;;6.27;;
3712;SDS011;1872;51.406;6.856;2023-04-25T00:54:28;12.00;;;5.50;;
3712;SDS011;1872;51.406;6.856;2023-04-25T00:56:55;10.00;;;7.20;;
3712;SDS011;1872;51.406;6.856;2023-04-25T00:59:22;7.77;;;5.40;;
3712;SDS011;1872;51.406;6.856;2023-04-25T01:01:59;10.03;;;5.20;;
3712;SDS011;1872;51.406;6.856;2023-04-25T01:04:26;10.23;;;6.20;;
3712;SDS011;1872;51.406;6.856;2023-04-25T01:06:53;8.60;;;5.10;;
3712;SDS011;1872;51.406;6.856;2023-04-25T01:09:19;8.07;;;5.20;;
3712;SDS011;1872;51.406;6.856;2023-04-25T01:11:45;8.83;;;5.43;;
3712;SDS011;1872;51.406;6.856;2023-04-25T01:14:11;7.57;;;5.20;;
3712;SDS011;1872;51.406;6.856;2023-04-25T01:16:37;12.20;;;5.90;;
3712;SDS011;1872;51.406;6.856;2023-04-25T01:19:04;9.57;;;4.90;;
3712;SDS011;1872;51.406;6.856;2023-04-25T01:21:35;9.83;;;6.30;;
3712;SDS011;1872;51.406;6.856;2023-04-25T01:24:01;16.07;;;5.63;;
3712;SDS011;1872;51.406;6.856;2023-04-25T01:26:27;10.73;;;5.40;;
3712;SDS011;1872;51.406;6.856;2023-04-25T01:28:53;10.60;;;5.70;;
3712;SDS011;1872;51.406;6.856;2023-04-25T01:31:19;5.57;;;5.07;;
3712;SDS011;1872;51.406;6.856;2023-04-25T01:33:44;10.80;;;5.50;;
3712;SDS011;1872;51.406;6.856;2023-04-25T01:36:10;7.60;;;5.03;;
3712;SDS011;1872;51.406;6.856;2023-04-25T01:38:37;7.53;;;5.33;;
3712;SDS011;1872;51.406;6.856;2023-04-25T01:41:03;12.70;;;5.60;;
3712;SDS011;1872;51.406;6.856;2023-04-25T01:43:30;9.03;;;5.07;;
3712;SDS011;1872;51.406;6.856;2023-04-25T01:45:55;10.50;;;5.57;;
3712;SDS011;1872;51.406;6.856;2023-04-25T01:48:22;9.80;;;5.87;;
3712;SDS011;1872;51.406;6.856;2023-04-25T01:50:47;12.13;;;6.90;;
3712;SDS011;1872;51.406;6.856;2023-04-25T01:53:13;7.90;;;5.20;;
3712;SDS011;1872;51.406;6.856;2023-04-25T01:55:39;9.63;;;6.00;;
3712;SDS011;1872;51.406;6.856;2023-04-25T01:58:05;14.20;;;5.07;;
3712;SDS011;1872;51.406;6.856;2023-04-25T02:00:35;9.67;;;5.27;;
3712;SDS011;1872;51.406;6.856;2023-04-25T02:03:03;9.73;;;5.33;;
3712;SDS011;1872;51.406;6.856;2023-04-25T02:05:36;9.90;;;5.03;;
3712;SDS011;1872;51.406;6.856;2023-04-25T02:08:04;10.33;;;5.80;;
3712;SDS011;1872;51.406;6.856;2023-04-25T02:10:30;9.37;;;5.50;;
3712;SDS011;1872;51.406;6.856;2023-04-25T02:12:57;7.23;;;5.97;;
3712;SDS011;1872;51.406;6.856;2023-04-25T02:15:22;12.70;;;6.20;;
3712;SDS011;1872;51.406;6.856;2023-04-25T02:17:48;10.07;;;6.50;;
3712;SDS011;1872;51.406;6.856;2023-04-25T02:20:14;10.53;;;6.10;;
3712;SDS011;1872;51.406;6.856;2023-04-25T02:22:41;7.57;;;5.63;;
3712;SDS011;1872;51.406;6.856;2023-04-25T02:25:07;9.73;;;6.33;;
3712;SDS011;1872;51.406;6.856;2023-04-25T02:27:34;8.27;;;5.63;;
3712;SDS011;1872;51.406;6.856;2023-04-25T02:30:00;12.50;;;6.30;;
3712;SDS011;1872;51.406;6.856;2023-04-25T02:32:26;6.40;;;4.70;;
3712;SDS011;1872;51.406;6.856;2023-04-25T02:34:52;9.53;;;6.30;;
3712;SDS011;1872;51.406;6.856;2023-04-25T02:37:17;8.83;;;5.60;;
3712;SDS011;1872;51.406;6.856;2023-04-25T02:39:43;5.83;;;5.23;;
3712;SDS011;1872;51.406;6.856;2023-04-25T02:42:08;11.60;;;6.43;;
3712;SDS011;1872;51.406;6.856;2023-04-25T02:44:34;12.57;;;6.00;;
3712;SDS011;1872;51.406;6.856;2023-04-25T02:47:00;10.03;;;6.17;;
3712;SDS011;1872;51.406;6.856;2023-04-25T02:49:25;13.10;;;6.43;;
3712;SDS011;1872;51.406;6.856;2023-04-25T02:51:51;12.27;;;6.93;;
3712;SDS011;1872;51.406;6.856;2023-04-25T02:54:16;9.40;;;5.90;;
3712;SDS011;1872;51.406;6.856;2023-04-25T02:56:43;9.20;;;6.03;;
3712;SDS011;1872;51.406;6.856;2023-04-25T02:59:09;10.27;;;6.60;;
3712;SDS011;1872;51.406;6.856;2023-04-25T03:01:34;12.03;;;5.40;;
3712;SDS011;1872;51.406;6.856;2023-04-25T03:04:00;12.17;;;6.07;;
3712;SDS011;1872;51.406;6.856;2023-04-25T03:06:26;9.67;;;6.20;;
3712;SDS011;1872;51.406;6.856;2023-04-25T03:08:51;11.97;;;6.33;;
3712;SDS011;1872;51.406;6.856;2023-04-25T03:11:17;9.33;;;4.70;;
3712;SDS011;1872;51.406;6.856;2023-04-25T03:13:45;8.50;;;5.50;;
3712;SDS011;1872;51.406;6.856;2023-04-25T03:16:10;11.07;;;5.90;;
3712;SDS011;1872;51.406;6.856;2023-04-25T03:18:36;9.97;;;5.07;;
3712;SDS011;1872;51.406;6.856;2023-04-25T03:21:02;7.90;;;5.47;;
3712;SDS011;1872;51.406;6.856;2023-04-25T03:23:27;10.03;;;5.73;;
3712;SDS011;1872;51.406;6.856;2023-04-25T03:25:53;10.10;;;7.20;;
3712;SDS011;1872;51.406;6.856;2023-04-25T03:28:19;8.33;;;5.73;;
3712;SDS011;1872;51.406;6.856;2023-04-25T03:30:45;11.27;;;5.23;;
3712;SDS011;1872;51.406;6.856;2023-04-25T03:33:10;9.13;;;5.70;;
3712;SDS011;1872;51.406;6.856;2023-04-25T03:35:36;8.83;;;5.63;;
3712;SDS011;1872;51.406;6.856;2023-04-25T03:38:02;17.73;;;6.20;;
3712;SDS011;1872;51.406;6.856;2023-04-25T03:40:27;9.70;;;4.97;;
3712;SDS011;1872;51.406;6.856;2023-04-25T03:42:53;8.43;;;5.90;;
3712;SDS011;1872;51.406;6.856;2023-04-25T03:45:19;10.97;;;6.40;;
3712;SDS011;1872;51.406;6.856;2023-04-25T03:47:44;11.80;;;6.60;;
3712;SDS011;1872;51.406;6.856;2023-04-25T03:50:10;11.77;;;7.30;;
3712;SDS011;1872;51.406;6.856;2023-04-25T03:52:35;14.53;;;6.33;;
3712;SDS011;1872;51.406;6.856;2023-04-25T03:55:01;18.23;;;7.17;;
3712;SDS011;1872;51.406;6.856;2023-04-25T03:57:27;11.63;;;6.30;;
3712;SDS011;1872;51.406;6.856;2023-04-25T03:59:52;10.10;;;6.53;;
3712;SDS011;1872;51.406;6.856;2023-04-25T04:02:18;14.37;;;6.97;;
3712;SDS011;1872;51.406;6.856;2023-04-25T04:04:44;14.50;;;7.17;;
3712;SDS011;1872;51.406;6.856;2023-04-25T04:07:10;13.40;;;6.90;;
3712;SDS011;1872;51.406;6.856;2023-04-25T04:09:35;12.13;;;7.03;;
3712;SDS011;1872;51.406;6.856;2023-04-25T04:12:01;15.03;;;7.03;;
3712;SDS011;1872;51.406;6.856;2023-04-25T04:14:27;12.10;;;7.43;;
3712;SDS011;1872;51.406;6.856;2023-04-25T04:16:53;14.80;;;6.97;;
3712;SDS011;1872;51.406;6.856;2023-04-25T04:19:19;11.80;;;6.57;;
3712;SDS011;1872;51.406;6.856;2023-04-25T04:21:45;19.43;;;8.37;;
3712;SDS011;1872;51.406;6.856;2023-04-25T04:24:11;11.40;;;6.90;;
3712;SDS011;1872;51.406;6.856;2023-04-25T04:26:36;8.87;;;6.40;;
3712;SDS011;1872;51.406;6.856;2023-04-25T04:29:03;12.40;;;7.47;;
3712;SDS011;1872;51.406;6.856;2023-04-25T04:31:29;15.17;;;7.13;;
3712;SDS011;1872;51.406;6.856;2023-04-25T04:33:55;13.60;;;7.20;;
3712;SDS011;1872;51.406;6.856;2023-04-25T04:36:20;12.40;;;6.93;;
3712;SDS011;1872;51.406;6.856;2023-04-25T04:38:48;14.40;;;8.50;;
3712;SDS011;1872;51.406;6.856;2023-04-25T04:41:14;19.17;;;7.20;;
3712;SDS011;1872;51.406;6.856;2023-04-25T04:43:39;9.03;;;6.70;;
3712;SDS011;1872;51.406;6.856;2023-04-25T04:46:05;14.17;;;7.23;;
3712;SDS011;1872;51.406;6.856;2023-04-25T04:48:31;10.93;;;6.30;;
3712;SDS011;1872;51.406;6.856;2023-04-25T04:51:00;16.67;;;6.83;;
3712;SDS011;1872;51.406;6.856;2023-04-25T04:53:26;11.40;;;6.30;;
3712;SDS011;1872;51.406;6.856;2023-04-25T04:55:52;16.17;;;6.90;;
3712;SDS011;1872;51.406;6.856;2023-04-25T04:58:18;11.80;;;6.20;;
3712;SDS011;1872;51.406;6.856;2023-04-25T05:00:44;12.47;;;6.00;;
3712;SDS011;1872;51.406;6.856;2023-04-25T05:03:10;10.00;;;6.63;;
3712;SDS011;1872;51.406;6.856;2023-04-25T05:05:36;9.10;;;6.03;;
3712;SDS011;1872;51.406;6.856;2023-04-25T05:08:04;10.77;;;5.83;;
3712;SDS011;1872;51.406;6.856;2023-04-25T05:10:31;8.73;;;6.27;;
3712;SDS011;1872;51.406;6.856;2023-04-25T05:12:56;12.10;;;6.93;;
3712;SDS011;1872;51.406;6.856;2023-04-25T05:15:22;19.33;;;6.50;;
3712;SDS011;1872;51.406;6.856;2023-04-25T05:17:48;14.10;;;7.00;;
3712;SDS011;1872;51.406;6.856;2023-04-25T05:20:13;15.73;;;6.83;;
3712;SDS011;1872;51.406;6.856;2023-04-25T05:22:39;12.70;;;6.57;;
3712;SDS011;1872;51.406;6.856;2023-04-25T05:25:06;13.17;;;7.20;;
3712;SDS011;1872;51.406;6.856;2023-04-25T05:27:33;11.93;;;6.43;;
3712;SDS011;1872;51.406;6.856;2023-04-25T05:29:58;11.70;;;6.40;;
3712;SDS011;1872;51.406;6.856;2023-04-25T05:32:24;13.30;;;7.40;;
3712;SDS011;1872;51.406;6.856;2023-04-25T05:34:50;10.37;;;6.23;;
3712;SDS011;1872;51.406;6.856;2023-04-25T05:37:16;13.00;;;6.80;;
3712;SDS011;1872;51.406;6.856;2023-04-25T05:39:42;10.87;;;5.70;;
3712;SDS011;1872;51.406;6.856;2023-04-25T05:42:08;11.30;;;7.37;;
3712;SDS011;1872;51.406;6.856;2023-04-25T05:44:33;14.97;;;7.93;;
3712;SDS011;1872;51.406;6.856;2023-04-25T05:46:59;17.60;;;9.00;;
3712;SDS011;1872;51.406;6.856;2023-04-25T05:49:25;9.57;;;7.20;;
3712;SDS011;1872;51.406;6.856;2023-04-25T05:51:50;8.97;;;6.73;;
3712;SDS011;1872;51.406;6.856;2023-04-25T05:54:16;13.60;;;6.17;;
3712;SDS011;1872;51.406;6.856;2023-04-25T05:56:41;16.77;;;6.60;;
3712;SDS011;1872;51.406;6.856;2023-04-25T05:59:07;11.20;;;6.13;;
3712;SDS011;1872;51.406;6.856;2023-04-25T06:01:33;14.90;;;7.20;;
3712;SDS011;1872;51.406;6.856;2023-04-25T06:03:58;12.23;;;7.00;;
3712;SDS011;1872;51.406;6.856;2023-04-25T06:06:24;14.13;;;7.73;;
3712;SDS011;1872;51.406;6.856;2023-04-25T06:08:51;9.20;;;6.23;;
3712;SDS011;1872;51.406;6.856;2023-04-25T06:11:17;15.37;;;7.57;;
3712;SDS011;1872;51.406;6.856;2023-04-25T06:13:43;13.03;;;7.17;;
3712;SDS011;1872;51.406;6.856;2023-04-25T06:16:08;12.37;;;7.57;;
3712;SDS011;1872;51.406;6.856;2023-04-25T06:18:34;17.23;;;7.13;;
3712;SDS011;1872;51.406;6.856;2023-04-25T06:21:00;17.40;;;7.87;;
3712;SDS011;1872;51.406;6.856;2023-04-25T06:23:25;22.30;;;7.20;;
3712;SDS011;1872;51.406;6.856;2023-04-25T06:25:51;12.23;;;6.90;;
3712;SDS011;1872;51.406;6.856;2023-04-25T06:28:17;10.70;;;7.23;;
3712;SDS011;1872;51.406;6.856;2023-04-25T06:30:43;11.10;;;6.83;;
3712;SDS011;1872;51.406;6.856;2023-04-25T06:33:09;12.10;;;6.77;;
3712;SDS011;1872;51.406;6.856;2023-04-25T06:35:35;14.27;;;6.63;;
3712;SDS011;1872;51.406;6.856;2023-04-25T06:38:00;12.70;;;6.50;;
3712;SDS011;1872;51.406;6.856;2023-04-25T06:40:26;10.23;;;6.40;;
3712;SDS011;1872;51.406;6.856;2023-04-25T06:42:52;10.10;;;7.00;;
3712;SDS011;1872;51.406;6.856;2023-04-25T06:45:17;7.87;;;6.30;;
3712;SDS011;1872;51.406;6.856;2023-04-25T06:47:43;14.70;;;7.57;;
3712;SDS011;1872;51.406;6.856;2023-04-25T06:50:11;11.73;;;7.57;;
3712;SDS011;1872;51.406;6.856;2023-04-25T06:52:36;12.83;;;6.80;;
3712;SDS011;1872;51.406;6.856;2023-04-25T06:55:02;17.67;;;7.63;;
3712;SDS011;1872;51.406;6.856;2023-04-25T06:57:30;10.70;;;7.20;;
3712;SDS011;1872;51.406;6.856;2023-04-25T06:59:55;13.17;;;7.30;;
3712;SDS011;1872;51.406;6.856;2023-04-25T07:02:21;17.13;;;9.60;;
3712;SDS011;1872;51.406;6.856;2023-04-25T07:04:47;12.87;;;7.40;;
3712;SDS011;1872;51.406;6.856;2023-04-25T07:07:13;11.10;;;6.90;;
3712;SDS011;1872;51.406;6.856;2023-04-25T07:09:38;7.63;;;6.00;;
3712;SDS011;1872;51.406;6.856;2023-04-25T07:12:04;11.77;;;5.87;;
3712;SDS011;1872;51.406;6.856;2023-04-25T07:14:30;11.97;;;5.73;;
3712;SDS011;1872;51.406;6.856;2023-04-25T07:16:56;7.17;;;5.60;;
3712;SDS011;1872;51.406;6.856;2023-04-25T07:19:22;10.40;;;5.43;;
3712;SDS011;1872;51.406;6.856;2023-04-25T07:21:51;10.90;;;5.37;;
3712;SDS011;1872;51.406;6.856;2023-04-25T07:24:17;7.40;;;5.40;;
3712;SDS011;1872;51.406;6.856;2023-04-25T07:26:43;8.90;;;5.30;;
3712;SDS011;1872;51.406;6.856;2023-04-25T07:29:09;10.53;;;5.70;;
3712;SDS011;1872;51.406;6.856;2023-04-25T07:31:34;10.87;;;6.00;;
3712;SDS011;1872;51.406;6.856;2023-04-25T07:34:00;15.30;;;8.17;;
3712;SDS011;1872;51.406;6.856;2023-04-25T07:36:26;9.93;;;5.67;;
3712;SDS011;1872;51.406;6.856;2023-04-25T07:38:52;13.63;;;7.60;;
3712;SDS011;1872;51.406;6.856;2023-04-25T07:41:17;19.17;;;6.70;;
3712;SDS011;1872;51.406;6.856;2023-04-25T07:43:43;12.90;;;7.10;;
3712;SDS011;1872;51.406;6.856;2023-04-25T07:46:09;9.30;;;6.33;;
3712;SDS011;1872;51.406;6.856;2023-04-25T07:48:35;14.13;;;6.00;;
3712;SDS011;1872;51.406;6.856;2023-04-25T07:51:00;9.13;;;5.20;;
3712;SDS011;1872;51.406;6.856;2023-04-25T07:53:26;7.83;;;4.33;;
3712;SDS011;1872;51.406;6.856;2023-04-25T07:55:51;8.10;;;4.10;;
3712;SDS011;1872;51.406;6.856;2023-04-25T07:58:17;7.90;;;5.77;;
3712;SDS011;1872;51.406;6.856;2023-04-25T08:00:46;10.50;;;6.60;;
3712;SDS011;1872;51.406;6.856;2023-04-25T08:03:12;5.73;;;4.40;;
3712;SDS011;1872;51.406;6.856;2023-04-25T08:05:38;6.40;;;4.60;;
3712;SDS011;1872;51.406;6.856;2023-04-25T08:08:04;7.67;;;4.37;;
3712;SDS011;1872;51.406;6.856;2023-04-25T08:10:31;7.63;;;4.40;;
3712;SDS011;1872;51.406;6.856;2023-04-25T08:12:58;6.10;;;4.37;;
3712;SDS011;1872;51.406;6.856;2023-04-25T08:15:24;5.07;;;4.37;;
3712;SDS011;1872;51.406;6.856;2023-04-25T08:17:50;8.30;;;3.73;;
3712;SDS011;1872;51.406;6.856;2023-04-25T08:20:16;8.80;;;4.00;;
3712;SDS011;1872;51.406;6.856;2023-04-25T08:22:42;9.90;;;4.40;;
3712;SDS011;1872;51.406;6.856;2023-04-25T08:25:08;9.23;;;4.63;;
3712;SDS011;1872;51.406;6.856;2023-04-25T08:27:33;7.70;;;4.70;;
3712;SDS011;1872;51.406;6.856;2023-04-25T08:30:00;8.17;;;5.00;;
3712;SDS011;1872;51.406;6.856;2023-04-25T08:32:26;8.90;;;4.80;;
3712;SDS011;1872;51.406;6.856;2023-04-25T08:34:52;8.47;;;5.00;;
3712;SDS011;1872;51.406;6.856;2023-04-25T08:37:20;6.10;;;4.53;;
3712;SDS011;1872;51.406;6.856;2023-04-25T08:39:46;6.43;;;4.03;;
3712;SDS011;1872;51.406;6.856;2023-04-25T08:42:17;7.77;;;4.20;;
3712;SDS011;1872;51.406;6.856;2023-04-25T08:44:43;8.27;;;4.10;;
3712;SDS011;1872;51.406;6.856;2023-04-25T08:47:10;6.53;;;3.60;;
3712;SDS011;1872;51.406;6.856;2023-04-25T08:49:35;6.80;;;4.00;;
3712;SDS011;1872;51.406;6.856;2023-04-25T08:52:04;5.37;;;3.57;;
3712;SDS011;1872;51.406;6.856;2023-04-25T08:54:31;3.33;;;2.87;;
3712;SDS011;1872;51.406;6.856;2023-04-25T08:56:57;6.63;;;3.70;;
3712;SDS011;1872;51.406;6.856;2023-04-25T08:59:32;6.20;;;3.50;;
3712;SDS011;1872;51.406;6.856;2023-04-25T09:01:58;9.47;;;3.87;;
3712;SDS011;1872;51.406;6.856;2023-04-25T09:04:23;6.57;;;4.00;;
3712;SDS011;1872;51.406;6.856;2023-04-25T09:06:50;4.60;;;3.40;;
3712;SDS011;1872;51.406;6.856;2023-04-25T09:09:15;9.27;;;3.90;;
3712;SDS011;1872;51.406;6.856;2023-04-25T09:11:41;8.90;;;4.40;;
3712;SDS011;1872;51.406;6.856;2023-04-25T09:14:17;5.47;;;3.30;;
3712;SDS011;1872;51.406;6.856;2023-04-25T09:19:32;6.90;;;4.60;;
3712;SDS011;1872;51.406;6.856;2023-04-25T09:22:01;4.70;;;3.30;;
3712;SDS011;1872;51.406;6.856;2023-04-25T09:26:57;7.23;;;3.83;;
3712;SDS011;1872;51.406;6.856;2023-04-25T09:29:29;6.23;;;3.83;;
3712;SDS011;1872;51.406;6.856;2023-04-25T09:34:48;3.70;;;2.80;;
3712;SDS011;1872;51.406;6.856;2023-04-25T09:37:19;6.23;;;3.80;;
3712;SDS011;1872;51.406;6.856;2023-04-25T09:39:49;4.43;;;3.73;;
3712;SDS011;1872;51.406;6.856;2023-04-25T09:42:23;7.63;;;5.13;;
3712;SDS011;1872;51.406;6.856;2023-04-25T09:44:51;7.63;;;4.87;;
3712;SDS011;1872;51.406;6.856;2023-04-25T09:47:18;7.10;;;4.30;;
3712;SDS011;1872;51.406;6.856;2023-04-25T09:49:46;5.97;;;3.43;;
3712;SDS011;1872;51.406;6.856;2023-04-25T09:52:15;8.63;;;4.00;;
3712;SDS011;1872;51.406;6.856;2023-04-25T09:54:43;8.47;;;4.23;;
3712;SDS011;1872;51.406;6.856;2023-04-25T09:57:14;4.33;;;4.03;;
3712;SDS011;1872;51.406;6.856;2023-04-25T09:59:48;4.33;;;3.47;;
3712;SDS011;1872;51.406;6.856;2023-04-25T10:02:16;7.33;;;3.67;;
3712;SDS011;1872;51.406;6.856;2023-04-25T10:04:46;4.50;;;3.10;;
3712;SDS011;1872;51.406;6.856;2023-04-25T10:07:13;4.03;;;3.00;;
3712;SDS011;1872;51.406;6.856;2023-04-25T10:09:40;5.07;;;2.80;;
3712;SDS011;1872;51.406;6.856;2023-04-25T10:12:07;3.50;;;2.27;;
3712;SDS011;1872;51.406;6.856;2023-04-25T10:14:33;2.80;;;2.37;;
3712;SDS011;1872;51.406;6.856;2023-04-25T10:17:00;4.83;;;2.03;;
3712;SDS011;1872;51.406;6.856;2023-04-25T10:19:26;8.83;;;3.10;;
3712;SDS011;1872;51.406;6.856;2023-04-25T10:24:21;2.80;;;2.00;;
3712;SDS011;1872;51.406;6.856;2023-04-25T10:26:47;3.30;;;2.10;;
3712;SDS011;1872;51.406;6.856;2023-04-25T10:29:21;5.97;;;2.70;;
3712;SDS011;1872;51.406;6.856;2023-04-25T10:31:50;4.93;;;2.57;;
3712;SDS011;1872;51.406;6.856;2023-04-25T10:34:16;3.43;;;2.83;;
3712;SDS011;1872;51.406;6.856;2023-04-25T10:36:42;7.43;;;3.13;;
3712;SDS011;1872;51.406;6.856;2023-04-25T10:39:21;6.40;;;2.83;;
3712;SDS011;1872;51.406;6.856;2023-04-25T10:41:53;4.10;;;2.93;;
3712;SDS011;1872;51.406;6.856;2023-04-25T10:44:23;5.63;;;2.63;;
3712;SDS011;1872;51.406;6.856;2023-04-25T10:46:55;2.90;;;2.60;;
3712;SDS011;1872;51.406;6.856;2023-04-25T10:49:29;5.60;;;2.80;;
3712;SDS011;1872;51.406;6.856;2023-04-25T11:02:37;2.37;;;2.20;;
3712;SDS011;1872;51.406;6.856;2023-04-25T11:05:22;3.20;;;2.60;;
3712;SDS011;1872;51.406;6.856;2023-04-25T11:07:54;3.67;;;2.70;;
3712;SDS011;1872;51.406;6.856;2023-04-25T11:10:31;5.27;;;2.77;;
3712;SDS011;1872;51.406;6.856;2023-04-25T11:13:19;5.40;;;2.80;;
3712;SDS011;1872;51.406;6.856;2023-04-25T11:15:55;4.53;;;3.17;;
3712;SDS011;1872;51.406;6.856;2023-04-25T11:18:20;5.40;;;3.10;;
3712;SDS011;1872;51.406;6.856;2023-04-25T11:20:47;3.57;;;2.50;;
3712;SDS011;1872;51.406;6.856;2023-04-25T11:23:15;3.27;;;2.73;;
3712;SDS011;1872;51.406;6.856;2023-04-25T11:25:41;4.60;;;2.40;;
3712;SDS011;1872;51.406;6.856;2023-04-25T11:28:07;6.50;;;3.07;;
3712;SDS011;1872;51.406;6.856;2023-04-25T11:30:33;5.50;;;2.80;;
3712;SDS011;1872;51.406;6.856;2023-04-25T11:32:59;3.93;;;2.80;;
3712;SDS011;1872;51.406;6.856;2023-04-25T11:35:25;4.00;;;2.57;;
3712;SDS011;1872;51.406;6.856;2023-04-25T11:37:50;5.50;;;4.07;;
3712;SDS011;1872;51.406;6.856;2023-04-25T11:40:16;4.70;;;2.80;;
3712;SDS011;1872;51.406;6.856;2023-04-25T11:42:46;5.33;;;2.57;;
3712;SDS011;1872;51.406;6.856;2023-04-25T11:45:12;4.70;;;2.90;;
3712;SDS011;1872;51.406;6.856;2023-04-25T11:47:39;2.70;;;2.50;;
3712;SDS011;1872;51.406;6.856;2023-04-25T11:50:05;4.73;;;3.47;;
3712;SDS011;1872;51.406;6.856;2023-04-25T11:52:45;3.63;;;3.07;;
3712;SDS011;1872;51.406;6.856;2023-04-25T11:55:15;4.20;;;2.63;;
3712;SDS011;1872;51.406;6.856;2023-04-25T11:57:44;4.07;;;3.17;;
3712;SDS011;1872;51.406;6.856;2023-04-25T12:02:42;6.83;;;3.80;;
3712;SDS011;1872;51.406;6.856;2023-04-25T12:05:09;7.50;;;4.17;;
3712;SDS011;1872;51.406;6.856;2023-04-25T12:07:35;5.70;;;3.67;;
3712;SDS011;1872;51.406;6.856;2023-04-25T12:10:06;11.40;;;5.70;;
3712;SDS011;1872;51.406;6.856;2023-04-25T12:12:33;3.47;;;2.80;;
3712;SDS011;1872;51.406;6.856;2023-04-25T12:15:13;3.43;;;3.13;;
3712;SDS011;1872;51.406;6.856;2023-04-25T12:17:46;2.33;;;2.23;;
3712;SDS011;1872;51.406;6.856;2023-04-25T12:20:17;3.60;;;2.40;;
3712;SDS011;1872;51.406;6.856;2023-04-25T12:22:45;3.00;;;2.67;;
3712;SDS011;1872;51.406;6.856;2023-04-25T12:25:12;2.97;;;2.73;;
3712;SDS011;1872;51.406;6.856;2023-04-25T12:27:38;3.40;;;3.10;;
3712;SDS011;1872;51.406;6.856;2023-04-25T12:30:11;5.37;;;3.40;;
3712;SDS011;1872;51.406;6.856;2023-04-25T12:32:37;5.87;;;3.43;;
3712;SDS011;1872;51.406;6.856;2023-04-25T12:35:03;3.97;;;3.43;;
3712;SDS011;1872;51.406;6.856;2023-04-25T12:37:31;3.90;;;3.37;;
3712;SDS011;1872;51.406;6.856;2023-04-25T12:39:57;5.17;;;2.97;;
3712;SDS011;1872;51.406;6.856;2023-04-25T12:42:22;5.70;;;3.17;;
3712;SDS011;1872;51.406;6.856;2023-04-25T12:44:48;6.23;;;3.03;;
3712;SDS011;1872;51.406;6.856;2023-04-25T12:47:13;3.90;;;3.30;;
3712;SDS011;1872;51.406;6.856;2023-04-25T12:49:39;5.07;;;3.27;;
3712;SDS011;1872;51.406;6.856;2023-04-25T12:52:05;6.93;;;3.13;;
3712;SDS011;1872;51.406;6.856;2023-04-25T12:54:31;3.17;;;2.37;;
3712;SDS011;1872;51.406;6.856;2023-04-25T12:56:57;2.67;;;2.20;;
3712;SDS011;1872;51.406;6.856;2023-04-25T12:59:24;2.77;;;2.30;;
3712;SDS011;1872;51.406;6.856;2023-04-25T13:01:49;5.90;;;3.10;;
3712;SDS011;1872;51.406;6.856;2023-04-25T13:04:15;3.93;;;2.10;;
3712;SDS011;1872;51.406;6.856;2023-04-25T13:06:41;4.23;;;2.77;;
3712;SDS011;1872;51.406;6.856;2023-04-25T13:09:07;5.70;;;3.10;;
3712;SDS011;1872;51.406;6.856;2023-04-25T13:11:33;5.00;;;3.10;;
3712;SDS011;1872;51.406;6.856;2023-04-25T13:13:59;5.23;;;2.90;;
3712;SDS011;1872;51.406;6.856;2023-04-25T13:16:25;5.10;;;2.93;;
3712;SDS011;1872;51.406;6.856;2023-04-25T13:18:51;2.70;;;2.47;;
3712;SDS011;1872;51.406;6.856;2023-04-25T13:21:17;4.77;;;2.60;;
3712;SDS011;1872;51.406;6.856;2023-04-25T13:23:42;3.80;;;3.30;;
3712;SDS011;1872;51.406;6.856;2023-04-25T13:26:09;4.43;;;3.90;;
3712;SDS011;1872;51.406;6.856;2023-04-25T13:28:35;6.63;;;6.00;;
3712;SDS011;1872;51.406;6.856;2023-04-25T13:31:00;11.10;;;7.40;;
3712;SDS011;1872;51.406;6.856;2023-04-25T13:33:26;7.57;;;5.67;;
3712;SDS011;1872;51.406;6.856;2023-04-25T13:35:52;6.87;;;4.90;;
3712;SDS011;1872;51.406;6.856;2023-04-25T13:38:22;3.90;;;3.57;;
3712;SDS011;1872;51.406;6.856;2023-04-25T13:40:50;5.10;;;2.90;;
3712;SDS011;1872;51.406;6.856;2023-04-25T13:43:18;7.23;;;3.53;;
3712;SDS011;1872;51.406;6.856;2023-04-25T13:45:48;10.83;;;6.60;;
3712;SDS011;1872;51.406;6.856;2023-04-25T13:48:14;6.73;;;4.20;;
3712;SDS011;1872;51.406;6.856;2023-04-25T13:50:40;4.77;;;3.53;;
3712;SDS011;1872;51.406;6.856;2023-04-25T13:53:05;2.87;;;2.33;;
3712;SDS011;1872;51.406;6.856;2023-04-25T13:55:31;4.70;;;2.90;;
3712;SDS011;1872;51.406;6.856;2023-04-25T13:57:57;5.83;;;2.50;;
3712;SDS011;1872;51.406;6.856;2023-04-25T14:00:22;5.13;;;2.60;;
3712;SDS011;1872;51.406;6.856;2023-04-25T14:02:48;4.53;;;2.80;;
3712;SDS011;1872;51.406;6.856;2023-04-25T14:05:14;3.70;;;2.87;;
3712;SDS011;1872;51.406;6.856;2023-04-25T14:07:40;7.00;;;2.73;;
3712;SDS011;1872;51.406;6.856;2023-04-25T14:10:06;3.87;;;2.97;;
3712;SDS011;1872;51.406;6.856;2023-04-25T14:12:32;7.53;;;2.80;;
3712;SDS011;1872;51.406;6.856;2023-04-25T14:14:58;6.23;;;2.60;;
3712;SDS011;1872;51.406;6.856;2023-04-25T14:17:23;2.73;;;2.53;;
3712;SDS011;1872;51.406;6.856;2023-04-25T14:19:50;5.60;;;3.17;;
3712;SDS011;1872;51.406;6.856;2023-04-25T14:22:16;5.80;;;2.53;;
3712;SDS011;1872;51.406;6.856;2023-04-25T14:24:42;2.60;;;2.40;;
3712;SDS011;1872;51.406;6.856;2023-04-25T14:27:08;5.00;;;2.63;;
3712;SDS011;1872;51.406;6.856;2023-04-25T14:29:34;3.60;;;2.07;;
3712;SDS011;1872;51.406;6.856;2023-04-25T14:31:59;3.60;;;2.30;;
3712;SDS011;1872;51.406;6.856;2023-04-25T14:34:25;8.83;;;3.27;;
3712;SDS011;1872;51.406;6.856;2023-04-25T14:36:51;2.00;;;1.70;;
3712;SDS011;1872;51.406;6.856;2023-04-25T14:39:17;2.50;;;2.30;;
3712;SDS011;1872;51.406;6.856;2023-04-25T14:41:43;2.10;;;2.00;;
3712;SDS011;1872;51.406;6.856;2023-04-25T14:44:10;2.80;;;2.20;;
3712;SDS011;1872;51.406;6.856;2023-04-25T14:46:36;4.00;;;2.07;;
3712;SDS011;1872;51.406;6.856;2023-04-25T14:49:02;2.30;;;2.10;;
3712;SDS011;1872;51.406;6.856;2023-04-25T14:51:28;2.70;;;2.30;;
3712;SDS011;1872;51.406;6.856;2023-04-25T14:53:54;3.00;;;2.57;;
3712;SDS011;1872;51.406;6.856;2023-04-25T14:56:20;6.03;;;3.83;;
3712;SDS011;1872;51.406;6.856;2023-04-25T14:58:46;5.67;;;3.00;;
3712;SDS011;1872;51.406;6.856;2023-04-25T15:01:12;2.57;;;2.37;;
3712;SDS011;1872;51.406;6.856;2023-04-25T15:03:40;6.90;;;3.10;;
3712;SDS011;1872;51.406;6.856;2023-04-25T15:06:06;3.53;;;2.27;;
3712;SDS011;1872;51.406;6.856;2023-04-25T15:08:33;6.20;;;2.83;;
3712;SDS011;1872;51.406;6.856;2023-04-25T15:10:58;6.03;;;3.80;;
3712;SDS011;1872;51.406;6.856;2023-04-25T15:13:25;3.13;;;2.47;;
3712;SDS011;1872;51.406;6.856;2023-04-25T15:15:51;5.20;;;2.60;;
3712;SDS011;1872;51.406;6.856;2023-04-25T15:18:20;3.70;;;3.30;;
3712;SDS011;1872;51.406;6.856;2023-04-25T15:20:49;6.03;;;3.47;;
3712;SDS011;1872;51.406;6.856;2023-04-25T15:23:16;5.30;;;3.03;;
3712;SDS011;1872;51.406;6.856;2023-04-25T15:25:43;5.30;;;3.20;;
3712;SDS011;1872;51.406;6.856;2023-04-25T15:28:09;2.60;;;2.40;;
3712;SDS011;1872;51.406;6.856;2023-04-25T15:30:34;4.50;;;2.87;;